createdAt,value
2022-10-31T00:01:39.384Z,4.55
2022-10-31T00:04:07.158Z,3.50
2022-10-31T00:06:33.976Z,2.65
2022-10-31T00:09:04.773Z,4.10
2022-10-31T00:11:32.213Z,6.50
2022-10-31T00:14:00.581Z,3.63
2022-10-31T00:16:28.991Z,4.35
2022-10-31T00:19:02.224Z,10.00
2022-10-31T00:21:31.052Z,4.75
2022-10-31T00:24:00.022Z,6.05
2022-10-31T00:26:31.903Z,3.67
2022-10-31T00:29:00.230Z,3.25
2022-10-31T00:31:27.079Z,5.95
2022-10-31T00:33:53.908Z,5.97
2022-10-31T00:36:21.697Z,3.85
2022-10-31T00:38:49.349Z,2.35
2022-10-31T00:41:18.684Z,5.70
2022-10-31T00:43:45.954Z,6.63
2022-10-31T00:46:13.745Z,5.13
2022-10-31T00:48:40.794Z,7.63
2022-10-31T00:51:08.346Z,4.65
2022-10-31T00:53:35.666Z,3.35
2022-10-31T00:56:03.104Z,2.72
2022-10-31T00:58:29.971Z,2.45
2022-10-31T01:00:57.001Z,2.60
2022-10-31T01:03:31.726Z,3.17
2022-10-31T01:06:01.021Z,3.75
2022-10-31T01:08:28.990Z,6.65
2022-10-31T01:11:16.605Z,3.22
2022-10-31T01:13:44.880Z,2.65
2022-10-31T01:16:15.828Z,3.63
2022-10-31T01:21:13.910Z,3.70
2022-10-31T01:23:41.580Z,3.88
2022-10-31T01:26:16.659Z,2.85
2022-10-31T01:28:59.132Z,2.53
2022-10-31T01:31:30.902Z,3.58
2022-10-31T01:33:58.995Z,2.63
2022-10-31T01:36:33.560Z,3.90
2022-10-31T01:39:16.029Z,1.65
2022-10-31T01:41:51.069Z,5.03
2022-10-31T01:44:17.778Z,2.92
2022-10-31T01:46:55.336Z,3.33
2022-10-31T01:49:34.729Z,2.28
2022-10-31T01:52:15.716Z,2.72
2022-10-31T01:57:19.364Z,3.83
2022-10-31T02:00:00.117Z,2.10
2022-10-31T02:02:31.220Z,4.30
2022-10-31T02:05:02.269Z,2.92
2022-10-31T02:10:05.084Z,3.70
2022-10-31T02:12:34.046Z,2.20
2022-10-31T02:15:01.351Z,2.33
2022-10-31T02:17:30.670Z,4.65
2022-10-31T02:20:12.285Z,4.38
2022-10-31T02:22:57.688Z,1.55
2022-10-31T02:26:05.821Z,4.70
2022-10-31T02:29:12.710Z,6.55
2022-10-31T02:32:14.590Z,3.35
2022-10-31T02:34:56.095Z,3.95
2022-10-31T02:37:50.750Z,2.25
2022-10-31T02:40:27.795Z,3.25
2022-10-31T02:43:22.872Z,3.65
2022-10-31T02:45:59.660Z,4.68
2022-10-31T02:48:32.090Z,3.05
2022-10-31T02:51:03.267Z,2.03
2022-10-31T02:53:38.146Z,3.05
2022-10-31T02:56:19.337Z,4.13
2022-10-31T02:59:02.589Z,3.22
2022-10-31T03:01:48.538Z,1.30
2022-10-31T03:04:41.916Z,2.30
2022-10-31T03:07:40.812Z,2.78
2022-10-31T03:10:47.004Z,1.42
2022-10-31T03:13:26.689Z,2.15
2022-10-31T03:16:10.233Z,4.60
2022-10-31T03:19:09.913Z,7.93
2022-10-31T03:21:56.667Z,5.82
2022-10-31T03:24:31.514Z,3.80
2022-10-31T03:27:01.236Z,2.10
2022-10-31T03:29:33.096Z,3.25
2022-10-31T03:32:07.420Z,2.42
2022-10-31T03:34:37.951Z,3.83
2022-10-31T03:37:10.099Z,4.35
2022-10-31T03:39:41.018Z,5.05
2022-10-31T03:44:45.547Z,2.28
2022-10-31T03:47:13.261Z,2.92
2022-10-31T03:49:40.701Z,3.20
2022-10-31T03:52:37.149Z,2.47
2022-10-31T03:55:17.388Z,3.15
2022-10-31T03:58:01.398Z,2.65
2022-10-31T04:00:30.934Z,2.10
2022-10-31T04:03:04.952Z,7.15
2022-10-31T04:05:33.117Z,3.33
2022-10-31T04:08:02.667Z,2.33
2022-10-31T04:10:33.199Z,2.47
2022-10-31T04:15:39.277Z,6.35
2022-10-31T04:18:07.035Z,3.60
2022-10-31T04:20:40.478Z,1.60
2022-10-31T04:23:25.131Z,3.30
2022-10-31T04:25:52.209Z,1.48
2022-10-31T04:30:52.229Z,2.22
2022-10-31T04:33:19.680Z,2.10
2022-10-31T04:35:47.059Z,1.58
2022-10-31T04:38:14.011Z,5.53
2022-10-31T04:40:40.990Z,3.72
2022-10-31T04:43:07.973Z,3.88
2022-10-31T04:45:34.999Z,2.50
2022-10-31T04:48:02.312Z,5.50
2022-10-31T04:50:29.357Z,4.20
2022-10-31T04:52:56.181Z,2.03
2022-10-31T04:55:22.956Z,4.15
2022-10-31T04:57:51.727Z,3.33
2022-10-31T05:00:22.177Z,1.77
2022-10-31T05:02:51.641Z,3.83
2022-10-31T05:05:22.829Z,2.38
2022-10-31T05:07:51.038Z,6.05
2022-10-31T05:10:26.452Z,2.70
2022-10-31T05:13:00.270Z,4.30
2022-10-31T05:15:29.177Z,4.38
2022-10-31T05:17:57.579Z,3.45
2022-10-31T05:20:30.239Z,3.28
2022-10-31T05:22:58.637Z,2.22
2022-10-31T05:25:28.365Z,3.53
2022-10-31T05:27:56.848Z,2.45
2022-10-31T05:30:30.859Z,1.45
2022-10-31T05:32:59.065Z,2.80
2022-10-31T05:35:30.502Z,1.73
2022-10-31T05:37:58.708Z,2.45
2022-10-31T05:40:27.469Z,2.20
2022-10-31T05:42:57.127Z,2.67
2022-10-31T05:45:24.351Z,1.73
2022-10-31T05:47:57.483Z,2.83
2022-10-31T05:50:27.364Z,3.08
2022-10-31T05:53:04.110Z,1.83
2022-10-31T05:55:31.935Z,5.90
2022-10-31T05:57:59.548Z,1.98
2022-10-31T06:00:28.047Z,2.35
2022-10-31T06:05:36.463Z,2.75
2022-10-31T06:08:04.060Z,2.22
2022-10-31T06:10:31.084Z,2.10
2022-10-31T06:12:58.023Z,5.82
2022-10-31T06:15:25.069Z,3.22
2022-10-31T06:18:04.410Z,4.80
2022-10-31T06:20:32.615Z,2.55
2022-10-31T06:23:00.215Z,2.13
2022-10-31T06:25:27.581Z,2.80
2022-10-31T06:27:55.210Z,2.97
2022-10-31T06:30:22.509Z,2.58
2022-10-31T06:32:50.780Z,3.30
2022-10-31T06:35:18.127Z,2.05
2022-10-31T06:37:53.642Z,5.18
2022-10-31T06:40:20.530Z,7.03
2022-10-31T06:42:47.356Z,3.13
2022-10-31T06:45:14.542Z,5.22
2022-10-31T06:47:56.730Z,8.15
2022-10-31T06:50:28.242Z,2.63
2022-10-31T06:52:59.687Z,4.13
2022-10-31T06:55:27.928Z,2.28
2022-10-31T06:58:03.085Z,2.95
2022-10-31T07:00:31.934Z,3.60
2022-10-31T07:03:08.792Z,4.43
2022-10-31T07:05:35.649Z,3.42
2022-10-31T07:08:09.768Z,5.00
2022-10-31T07:10:40.565Z,3.90
2022-10-31T07:13:13.299Z,5.93
2022-10-31T07:15:42.609Z,5.50
2022-10-31T07:18:12.827Z,4.10
2022-10-31T07:20:40.067Z,2.08
2022-10-31T07:23:07.171Z,3.78
2022-10-31T07:25:34.056Z,3.20
2022-10-31T07:28:01.123Z,2.88
2022-10-31T07:30:28.293Z,3.45
2022-10-31T07:32:56.456Z,2.83
2022-10-31T07:35:29.110Z,5.65
2022-10-31T07:37:57.368Z,4.72
2022-10-31T07:40:25.554Z,3.13
2022-10-31T07:42:54.450Z,4.45
2022-10-31T07:45:22.179Z,2.47
2022-10-31T07:47:53.808Z,2.70
2022-10-31T07:50:30.434Z,3.22
2022-10-31T07:53:00.502Z,4.93
2022-10-31T07:55:28.481Z,4.28
2022-10-31T07:58:08.427Z,2.55
2022-10-31T08:00:37.724Z,2.57
2022-10-31T08:03:14.188Z,4.55
2022-10-31T08:05:42.206Z,2.10
2022-10-31T08:08:09.661Z,2.95
2022-10-31T08:10:37.209Z,2.35
2022-10-31T08:13:13.348Z,3.38
2022-10-31T08:15:42.573Z,2.08
2022-10-31T08:18:15.723Z,2.92
2022-10-31T08:20:44.146Z,1.83
2022-10-31T08:23:13.652Z,2.65
2022-10-31T08:25:41.286Z,5.32
2022-10-31T08:28:11.748Z,1.92
2022-10-31T08:30:39.771Z,2.47
2022-10-31T08:33:16.658Z,2.40
2022-10-31T08:35:43.951Z,5.38
2022-10-31T08:38:13.558Z,2.00
2022-10-31T08:40:40.979Z,3.00
2022-10-31T08:43:14.915Z,2.25
2022-10-31T08:45:43.225Z,2.90
2022-10-31T08:48:16.220Z,1.83
2022-10-31T08:50:45.057Z,3.72
2022-10-31T08:53:20.201Z,2.55
2022-10-31T08:55:47.864Z,3.22
2022-10-31T08:58:21.586Z,3.30
2022-10-31T09:00:52.203Z,2.67
2022-10-31T09:03:26.285Z,5.53
2022-10-31T09:06:00.465Z,3.13
2022-10-31T09:08:30.423Z,2.60
2022-10-31T09:10:58.693Z,2.30
2022-10-31T09:13:28.157Z,2.08
2022-10-31T09:15:57.729Z,2.38
2022-10-31T09:18:28.854Z,3.42
2022-10-31T09:20:59.032Z,1.77
2022-10-31T09:23:25.924Z,3.25
2022-10-31T09:25:54.216Z,4.38
2022-10-31T09:28:24.475Z,3.78
2022-10-31T09:30:54.205Z,3.05
2022-10-31T09:33:22.184Z,2.30
2022-10-31T09:35:49.331Z,3.17
2022-10-31T09:38:20.414Z,3.40
2022-10-31T09:41:41.274Z,2.55
2022-10-31T09:44:40.576Z,3.22
2022-10-31T09:47:44.915Z,3.17
2022-10-31T09:50:22.267Z,2.42
2022-10-31T09:53:11.181Z,1.42
2022-10-31T09:55:44.997Z,2.00
2022-10-31T09:58:21.193Z,3.13
2022-10-31T10:00:49.357Z,2.90
2022-10-31T10:03:41.329Z,2.70
2022-10-31T10:06:24.269Z,2.15
2022-10-31T10:08:51.410Z,2.15
2022-10-31T10:12:14.009Z,1.60
2022-10-31T10:15:31.902Z,6.20
2022-10-31T10:18:19.401Z,1.95
2022-10-31T10:21:14.533Z,2.40
2022-10-31T10:24:31.792Z,4.40
2022-10-31T10:27:59.453Z,1.58
2022-10-31T10:30:45.707Z,2.53
2022-10-31T10:33:23.760Z,2.05
2022-10-31T10:36:05.233Z,2.78
2022-10-31T10:38:57.957Z,3.40
2022-10-31T10:41:34.307Z,1.98
2022-10-31T10:44:02.231Z,3.17
2022-10-31T10:47:07.894Z,3.55
2022-10-31T10:49:52.031Z,4.00
2022-10-31T10:52:50.169Z,3.38
2022-10-31T10:55:40.629Z,5.32
2022-10-31T10:58:12.040Z,3.90
2022-10-31T11:00:47.922Z,2.67
2022-10-31T11:03:16.544Z,5.78
2022-10-31T11:05:55.404Z,2.88
2022-10-31T11:08:34.585Z,4.78
2022-10-31T11:11:29.130Z,5.43
2022-10-31T11:14:21.470Z,1.60
2022-10-31T11:16:55.607Z,3.72
2022-10-31T11:19:28.364Z,2.63
2022-10-31T11:22:07.240Z,1.50
2022-10-31T11:24:41.548Z,2.88
2022-10-31T11:27:21.147Z,2.15
2022-10-31T11:29:48.277Z,5.13
2022-10-31T11:32:23.352Z,3.00
2022-10-31T11:34:58.184Z,1.85
2022-10-31T11:37:36.464Z,6.53
2022-10-31T11:40:07.770Z,4.28
2022-10-31T11:42:42.400Z,2.65
2022-10-31T11:45:24.694Z,5.63
2022-10-31T11:47:59.551Z,2.45
2022-10-31T11:50:39.536Z,5.80
2022-10-31T11:53:27.406Z,2.15
2022-10-31T11:56:21.328Z,2.95
2022-10-31T11:59:06.586Z,2.42
2022-10-31T12:01:34.487Z,3.38
2022-10-31T12:04:10.098Z,3.70
2022-10-31T12:06:39.610Z,4.78
2022-10-31T12:09:23.857Z,2.28
2022-10-31T12:12:14.525Z,3.22
2022-10-31T12:17:34.795Z,2.00
2022-10-31T12:20:26.776Z,3.50
2022-10-31T12:23:21.901Z,3.88
2022-10-31T12:26:15.543Z,5.72
2022-10-31T12:29:07.257Z,5.57
2022-10-31T12:31:52.066Z,3.78
2022-10-31T12:34:49.842Z,2.28
2022-10-31T12:37:40.398Z,3.03
2022-10-31T12:40:32.017Z,3.15
2022-10-31T12:43:31.952Z,1.33
2022-10-31T12:46:01.571Z,1.97
2022-10-31T12:48:47.237Z,3.58
2022-10-31T12:51:25.189Z,7.00
2022-10-31T12:54:45.477Z,4.28
2022-10-31T12:57:43.424Z,1.85
2022-10-31T13:00:22.068Z,1.60
2022-10-31T13:03:21.813Z,3.05
2022-10-31T13:05:57.688Z,1.88
2022-10-31T13:08:46.563Z,3.88
2022-10-31T13:11:24.187Z,1.70
2022-10-31T13:14:17.629Z,3.05
2022-10-31T13:16:49.091Z,3.92
2022-10-31T13:19:38.187Z,2.25
2022-10-31T13:22:30.370Z,5.45
2022-10-31T13:25:04.551Z,5.20
2022-10-31T13:27:54.037Z,2.42
2022-10-31T13:30:24.070Z,4.50
2022-10-31T13:33:10.392Z,5.15
2022-10-31T13:35:59.504Z,3.53
2022-10-31T13:38:57.622Z,4.50
2022-10-31T13:41:49.468Z,3.88
2022-10-31T13:44:28.029Z,4.97
2022-10-31T13:46:58.227Z,5.13
2022-10-31T13:49:40.319Z,4.07
2022-10-31T13:52:13.306Z,4.20
2022-10-31T13:54:56.572Z,3.80
2022-10-31T13:57:48.979Z,4.25
2022-10-31T14:00:21.562Z,6.38
2022-10-31T14:02:58.779Z,3.55
2022-10-31T14:05:35.515Z,4.25
2022-10-31T14:08:16.265Z,5.15
2022-10-31T14:10:54.023Z,1.90
2022-10-31T14:13:42.161Z,6.43
2022-10-31T14:16:33.321Z,2.55
2022-10-31T14:19:19.309Z,2.38
2022-10-31T14:21:51.935Z,4.32
2022-10-31T14:24:24.872Z,2.08
2022-10-31T14:27:25.016Z,3.60
2022-10-31T14:29:51.932Z,2.08
2022-10-31T14:32:24.205Z,4.63
2022-10-31T14:34:50.913Z,4.13
2022-10-31T14:38:19.506Z,3.33
2022-10-31T14:41:40.621Z,3.15
2022-10-31T14:44:48.508Z,2.47
2022-10-31T14:47:32.416Z,5.05
2022-10-31T14:50:34.720Z,5.47
2022-10-31T14:53:07.279Z,3.08
2022-10-31T14:55:34.466Z,1.52
2022-10-31T14:58:08.332Z,5.30
2022-10-31T15:00:37.190Z,3.22
2022-10-31T15:03:26.018Z,2.65
2022-10-31T15:05:57.677Z,4.50
2022-10-31T15:08:52.642Z,4.03
2022-10-31T15:11:28.599Z,3.53
2022-10-31T15:13:58.610Z,3.78
2022-10-31T15:16:36.633Z,3.80
2022-10-31T15:19:13.025Z,3.63
2022-10-31T15:21:46.690Z,2.70
2022-10-31T15:24:19.346Z,3.50
2022-10-31T15:26:52.713Z,6.43
2022-10-31T15:29:25.642Z,1.95
2022-10-31T15:32:03.701Z,3.08
2022-10-31T15:34:44.532Z,3.08
2022-10-31T15:39:40.914Z,1.95
2022-10-31T15:42:36.793Z,4.53
2022-10-31T15:45:28.078Z,4.97
2022-10-31T15:48:17.740Z,4.30
2022-10-31T15:50:57.529Z,3.20
2022-10-31T15:53:43.459Z,2.78
2022-10-31T15:56:20.457Z,4.13
2022-10-31T15:58:51.481Z,6.82
2022-10-31T16:01:29.597Z,6.75
2022-10-31T16:04:12.552Z,3.67
2022-10-31T16:06:40.172Z,3.92
2022-10-31T16:09:24.159Z,2.28
2022-10-31T16:11:51.869Z,5.15
2022-10-31T16:14:25.881Z,5.80
2022-10-31T16:16:57.612Z,3.53
2022-10-31T16:19:34.761Z,5.78
2022-10-31T16:22:36.670Z,3.75
2022-10-31T16:25:16.765Z,5.93
2022-10-31T16:27:54.462Z,3.22
2022-10-31T16:30:48.511Z,2.78
2022-10-31T16:33:37.012Z,9.63
2022-10-31T16:36:36.613Z,5.28
2022-10-31T16:39:04.357Z,4.28
2022-10-31T16:41:33.464Z,3.55
2022-10-31T16:44:05.244Z,4.03
2022-10-31T16:46:32.054Z,3.63
2022-10-31T16:48:58.823Z,6.53
2022-10-31T16:51:25.641Z,6.53
2022-10-31T16:53:54.345Z,7.00
2022-10-31T16:56:34.306Z,8.73
2022-10-31T16:59:04.838Z,5.27
2022-10-31T17:01:32.745Z,4.60
2022-10-31T17:03:59.811Z,6.53
2022-10-31T17:06:28.418Z,7.30
2022-10-31T17:08:55.593Z,8.38
2022-10-31T17:11:26.082Z,3.65
2022-10-31T17:13:54.885Z,5.25
2022-10-31T17:16:21.749Z,4.20
2022-10-31T17:18:48.734Z,5.15
2022-10-31T17:21:24.051Z,8.27
2022-10-31T17:23:51.368Z,6.88
2022-10-31T17:26:18.507Z,6.32
2022-10-31T17:28:45.576Z,5.60
2022-10-31T17:31:27.952Z,4.28
2022-10-31T17:34:02.661Z,4.80
2022-10-31T17:36:35.228Z,2.83
2022-10-31T17:39:03.477Z,3.25
2022-10-31T17:41:30.317Z,5.18
2022-10-31T17:43:58.262Z,3.45
2022-10-31T17:46:25.677Z,7.97
2022-10-31T17:48:52.592Z,9.48
2022-10-31T17:51:19.393Z,3.33
2022-10-31T17:53:46.260Z,5.88
2022-10-31T17:56:13.226Z,6.22
2022-10-31T17:58:40.225Z,7.00
2022-10-31T18:01:15.087Z,7.50
2022-10-31T18:03:57.597Z,9.60
2022-10-31T18:06:24.408Z,9.55
2022-10-31T18:08:51.253Z,13.90
2022-10-31T18:11:21.630Z,21.02
2022-10-31T18:13:54.977Z,14.77
2022-10-31T18:16:22.075Z,15.23
2022-10-31T18:19:00.730Z,15.30
2022-10-31T18:21:28.542Z,16.17
2022-10-31T18:23:56.960Z,21.33
2022-10-31T18:26:27.619Z,16.73
2022-10-31T18:28:54.914Z,21.20
2022-10-31T18:31:21.991Z,19.40
2022-10-31T18:33:48.808Z,20.08
2022-10-31T18:36:15.630Z,16.60
2022-10-31T18:38:46.654Z,15.25
2022-10-31T18:41:15.064Z,23.05
2022-10-31T18:43:42.624Z,20.45
2022-10-31T18:46:15.216Z,18.27
2022-10-31T18:48:44.489Z,19.05
2022-10-31T18:51:14.730Z,19.25
2022-10-31T18:53:41.596Z,21.20
2022-10-31T18:56:11.284Z,12.80
2022-10-31T18:58:38.301Z,12.65
2022-10-31T19:01:11.338Z,16.85
2022-10-31T19:03:39.299Z,19.33
2022-10-31T19:06:07.776Z,13.73
2022-10-31T19:08:35.997Z,13.68
2022-10-31T19:11:12.908Z,10.80
2022-10-31T19:13:41.661Z,13.82
2022-10-31T19:16:12.749Z,12.60
2022-10-31T19:18:41.876Z,11.02
2022-10-31T19:21:15.058Z,13.35
2022-10-31T19:23:42.950Z,14.60
2022-10-31T19:26:10.361Z,11.98
2022-10-31T19:28:39.779Z,14.73
2022-10-31T19:31:07.782Z,14.68
2022-10-31T19:33:36.348Z,14.65
2022-10-31T19:36:13.359Z,12.98
2022-10-31T19:38:45.121Z,14.88
2022-10-31T19:41:28.359Z,13.57
2022-10-31T19:43:58.474Z,12.32
2022-10-31T19:46:51.836Z,12.27
2022-10-31T19:49:12.386Z,7.97
2022-10-31T19:51:39.498Z,12.80
2022-10-31T19:54:07.746Z,12.63
2022-10-31T19:56:34.728Z,14.88
2022-10-31T19:59:03.147Z,15.45
2022-10-31T20:01:30.934Z,15.77
2022-10-31T20:03:57.924Z,16.65
2022-10-31T20:06:30.574Z,19.95
2022-10-31T20:08:57.885Z,22.15
2022-10-31T20:11:27.350Z,18.65
2022-10-31T20:13:59.058Z,17.45
2022-10-31T20:16:27.835Z,21.17
2022-10-31T20:18:55.409Z,19.48
2022-10-31T20:21:26.551Z,14.30
2022-10-31T20:23:59.950Z,13.15
2022-10-31T20:26:28.442Z,11.07
2022-10-31T20:29:00.485Z,10.93
2022-10-31T20:31:32.609Z,12.25
2022-10-31T20:33:59.501Z,11.57
2022-10-31T20:36:28.685Z,8.60
2022-10-31T20:38:55.643Z,8.70
2022-10-31T20:41:22.456Z,12.40
2022-10-31T20:43:49.404Z,10.15
2022-10-31T20:46:24.565Z,8.77
2022-10-31T20:48:52.565Z,10.88
2022-10-31T20:51:23.565Z,12.40
2022-10-31T20:53:53.260Z,22.73
2022-10-31T20:56:23.953Z,20.88
2022-10-31T20:58:51.389Z,19.42
2022-10-31T21:01:25.178Z,14.68
2022-10-31T21:03:53.216Z,13.10
2022-10-31T21:06:23.068Z,12.15
2022-10-31T21:08:51.308Z,11.90
2022-10-31T21:11:22.005Z,15.80
2022-10-31T21:13:49.967Z,15.98
2022-10-31T21:16:27.482Z,18.15
2022-10-31T21:18:55.109Z,16.98
2022-10-31T21:21:28.985Z,19.85
2022-10-31T21:24:03.001Z,15.57
2022-10-31T21:26:34.388Z,15.38
2022-10-31T21:29:03.790Z,14.43
2022-10-31T21:31:31.390Z,18.10
2022-10-31T21:33:58.454Z,12.07
2022-10-31T21:36:26.217Z,11.70
2022-10-31T21:38:55.257Z,9.10
2022-10-31T21:41:24.409Z,9.35
2022-10-31T21:43:55.821Z,12.45
2022-10-31T21:46:26.533Z,11.73
2022-10-31T21:48:54.768Z,10.02
2022-10-31T21:51:25.937Z,8.43
2022-10-31T21:54:12.266Z,13.75
2022-10-31T21:56:39.950Z,10.55
2022-10-31T21:59:07.357Z,10.48
2022-10-31T22:01:35.267Z,12.18
2022-10-31T22:04:03.113Z,11.75
2022-10-31T22:06:30.420Z,12.35
2022-10-31T22:09:03.279Z,9.95
2022-10-31T22:11:30.207Z,8.57
2022-10-31T22:14:00.356Z,10.70
2022-10-31T22:16:29.683Z,8.02
2022-10-31T22:19:00.400Z,13.40
2022-10-31T22:21:28.604Z,11.05
2022-10-31T22:24:03.317Z,10.05
2022-10-31T22:26:32.292Z,10.95
2022-10-31T22:29:02.115Z,10.95
2022-10-31T22:31:31.653Z,14.48
2022-10-31T22:33:59.180Z,10.05
2022-10-31T22:36:29.429Z,10.48
2022-10-31T22:38:59.889Z,10.82
2022-10-31T22:41:30.507Z,10.50
2022-10-31T22:43:58.274Z,15.40
2022-10-31T22:46:28.886Z,13.05
2022-10-31T22:48:59.897Z,13.50
2022-10-31T22:51:39.667Z,13.07
2022-10-31T22:54:14.495Z,12.13
2022-10-31T22:56:41.304Z,12.45
2022-10-31T22:59:14.761Z,11.43
2022-10-31T23:01:44.891Z,13.52
2022-10-31T23:04:13.293Z,11.60
2022-10-31T23:06:40.465Z,11.70
2022-10-31T23:09:08.494Z,7.05
2022-10-31T23:11:39.927Z,7.70
2022-10-31T23:14:14.003Z,8.15
2022-10-31T23:16:54.287Z,10.70
2022-10-31T23:19:28.194Z,5.83
2022-10-31T23:22:01.779Z,6.35
2022-10-31T23:24:39.873Z,9.45
2022-10-31T23:27:14.179Z,10.40
2022-10-31T23:29:52.726Z,7.25
2022-10-31T23:32:29.343Z,6.25
2022-10-31T23:35:08.816Z,5.60
2022-10-31T23:37:38.460Z,8.05
2022-10-31T23:40:08.701Z,5.55
2022-10-31T23:42:35.563Z,4.68
2022-10-31T23:45:02.739Z,4.35
2022-10-31T23:47:29.629Z,8.68
2022-10-31T23:49:56.412Z,6.95
2022-10-31T23:52:23.203Z,5.10
2022-10-31T23:54:50.029Z,5.90
2022-10-31T23:57:17.723Z,6.70
2022-10-31T23:59:44.911Z,4.90
